createdAt,value
2023-02-19T00:01:45.402Z,80.07
2023-02-19T00:04:14.684Z,80.04
2023-02-19T00:06:42.307Z,80.07
2023-02-19T00:09:11.471Z,80.07
2023-02-19T00:11:38.737Z,80.12
2023-02-19T00:14:07.105Z,80.03
2023-02-19T00:16:36.626Z,80.04
2023-02-19T00:31:21.288Z,79.80
2023-02-19T00:33:51.621Z,79.86
2023-02-19T00:36:19.264Z,79.82
2023-02-19T00:38:47.434Z,79.80
2023-02-19T00:41:19.316Z,79.62
2023-02-19T00:43:46.720Z,79.52
2023-02-19T00:46:14.821Z,79.73
2023-02-19T00:48:41.950Z,79.55
2023-02-19T00:51:09.143Z,79.64
2023-02-19T00:53:36.610Z,79.62
2023-02-19T00:56:03.847Z,79.53
2023-02-19T00:58:30.891Z,79.56
2023-02-19T01:00:58.019Z,79.70
2023-02-19T01:03:25.479Z,79.60
2023-02-19T01:05:53.573Z,79.56
2023-02-19T01:08:21.306Z,79.57
2023-02-19T01:10:48.647Z,79.56
2023-02-19T01:13:15.692Z,79.62
2023-02-19T01:15:43.289Z,79.49
2023-02-19T01:18:11.167Z,79.43
2023-02-19T01:20:43.028Z,79.43
2023-02-19T01:23:12.401Z,79.53
2023-02-19T01:25:40.865Z,79.57
2023-02-19T01:28:08.497Z,79.47
2023-02-19T01:30:37.180Z,79.42
2023-02-19T01:33:05.463Z,79.36
2023-02-19T01:35:32.711Z,79.33
2023-02-19T01:37:59.709Z,79.35
2023-02-19T01:40:27.147Z,79.37
2023-02-19T01:42:54.063Z,79.26
2023-02-19T01:45:33.220Z,79.21
2023-02-19T01:48:37.819Z,79.20
2023-02-19T01:51:04.995Z,79.20
2023-02-19T01:53:36.686Z,78.94
2023-02-19T01:56:04.925Z,79.08
2023-02-19T01:58:34.671Z,79.20
2023-02-19T02:01:04.997Z,79.11
2023-02-19T02:03:33.160Z,78.81
2023-02-19T02:06:01.648Z,78.85
2023-02-19T02:08:48.569Z,78.92
2023-02-19T02:11:15.722Z,79.02
2023-02-19T02:13:43.082Z,79.04
2023-02-19T02:16:12.853Z,78.71
2023-02-19T02:18:51.400Z,78.78
2023-02-19T02:21:18.251Z,78.76
2023-02-19T02:24:03.055Z,78.67
2023-02-19T02:27:16.780Z,78.61
2023-02-19T02:30:11.780Z,78.73
2023-02-19T02:33:13.858Z,78.72
2023-02-19T02:35:58.173Z,78.59
2023-02-19T02:38:29.766Z,78.61
2023-02-19T02:40:57.441Z,78.49
2023-02-19T02:43:25.136Z,78.58
2023-02-19T02:45:52.539Z,78.40
2023-02-19T02:48:27.896Z,78.59
2023-02-19T02:51:10.330Z,78.43
2023-02-19T02:54:15.909Z,78.37
2023-02-19T02:56:46.848Z,78.24
2023-02-19T02:59:16.544Z,78.60
2023-02-19T03:02:08.629Z,78.47
2023-02-19T03:05:03.026Z,78.48
2023-02-19T03:07:44.188Z,78.56
2023-02-19T03:10:17.137Z,78.35
2023-02-19T03:13:04.602Z,78.27
2023-02-19T03:16:00.151Z,78.22
2023-02-19T03:18:46.868Z,78.42
2023-02-19T03:21:17.283Z,78.11
2023-02-19T03:24:04.193Z,78.42
2023-02-19T03:26:33.663Z,78.28
2023-02-19T03:29:21.832Z,78.35
2023-02-19T03:31:52.698Z,78.23
2023-02-19T03:34:27.161Z,78.21
2023-02-19T03:37:17.883Z,78.33
2023-02-19T03:39:45.887Z,78.22
2023-02-19T03:42:35.381Z,78.10
2023-02-19T03:45:17.731Z,78.11
2023-02-19T03:48:18.365Z,78.05
2023-02-19T03:50:50.045Z,78.21
2023-02-19T03:53:50.840Z,78.05
2023-02-19T03:56:38.394Z,78.04
2023-02-19T03:59:27.766Z,77.79
2023-02-19T04:01:59.760Z,77.90
2023-02-19T04:04:36.555Z,78.10
2023-02-19T04:07:04.668Z,77.94
2023-02-19T04:09:42.949Z,77.92
2023-02-19T04:12:15.905Z,77.92
2023-02-19T04:14:54.823Z,77.86
2023-02-19T04:17:28.037Z,78.01
2023-02-19T04:19:57.001Z,77.97
2023-02-19T04:22:24.750Z,78.08
2023-02-19T04:24:54.056Z,78.14
2023-02-19T04:27:21.219Z,78.14
2023-02-19T04:29:48.201Z,77.98
2023-02-19T04:32:15.173Z,77.98
2023-02-19T04:34:42.052Z,77.98
2023-02-19T04:37:08.969Z,77.90
2023-02-19T04:39:36.198Z,78.12
2023-02-19T04:42:03.665Z,78.09
2023-02-19T04:44:30.768Z,77.85
2023-02-19T04:46:57.562Z,78.03
2023-02-19T04:49:24.522Z,78.01
2023-02-19T04:51:51.470Z,78.08
2023-02-19T04:54:18.317Z,78.21
2023-02-19T04:56:45.149Z,78.13
2023-02-19T04:59:12.847Z,78.12
2023-02-19T05:01:39.709Z,78.12
2023-02-19T05:04:06.975Z,78.16
2023-02-19T05:06:33.922Z,78.06
2023-02-19T05:09:01.083Z,77.97
2023-02-19T05:11:28.167Z,78.14
2023-02-19T05:13:56.160Z,78.19
2023-02-19T05:16:23.001Z,78.12
2023-02-19T05:18:50.019Z,78.12
2023-02-19T05:21:16.836Z,78.09
2023-02-19T05:23:44.282Z,78.09
2023-02-19T05:26:20.065Z,78.13
2023-02-19T05:28:49.348Z,78.19
2023-02-19T05:31:17.119Z,78.14
2023-02-19T05:33:45.793Z,78.08
2023-02-19T05:36:14.074Z,78.17
2023-02-19T05:38:41.923Z,78.24
2023-02-19T05:41:15.184Z,78.11
2023-02-19T05:43:43.710Z,78.11
2023-02-19T05:46:12.613Z,77.95
2023-02-19T05:48:40.309Z,77.95
2023-02-19T05:51:10.242Z,77.81
2023-02-19T05:53:38.539Z,77.80
2023-02-19T05:56:17.733Z,77.78
2023-02-19T05:58:44.772Z,77.69
2023-02-19T06:01:17.301Z,77.67
2023-02-19T06:03:44.436Z,77.81
2023-02-19T06:06:15.655Z,77.52
2023-02-19T06:08:42.674Z,77.76
2023-02-19T06:11:09.786Z,77.62
2023-02-19T06:13:37.044Z,77.65
2023-02-19T06:16:04.974Z,77.70
2023-02-19T06:18:32.264Z,77.63
2023-02-19T06:21:07.120Z,77.54
2023-02-19T06:23:34.591Z,77.57
2023-02-19T06:26:20.755Z,77.72
2023-02-19T06:28:49.636Z,77.77
2023-02-19T06:31:17.519Z,77.74
2023-02-19T06:33:45.180Z,77.52
2023-02-19T06:36:15.829Z,77.60
2023-02-19T06:38:42.989Z,77.36
2023-02-19T06:41:10.749Z,77.31
2023-02-19T06:43:38.101Z,77.27
2023-02-19T06:46:06.550Z,77.63
2023-02-19T06:48:34.314Z,77.58
2023-02-19T06:51:01.314Z,77.63
2023-02-19T06:53:28.465Z,77.73
2023-02-19T06:55:59.693Z,77.62
2023-02-19T06:58:27.416Z,77.66
2023-02-19T07:00:54.848Z,77.74
2023-02-19T07:03:22.138Z,77.79
2023-02-19T07:05:49.772Z,77.69
2023-02-19T07:08:19.649Z,77.72
2023-02-19T07:10:46.879Z,77.56
2023-02-19T07:13:13.836Z,77.75
2023-02-19T07:15:40.719Z,77.70
2023-02-19T07:18:10.620Z,77.69
2023-02-19T07:20:37.992Z,77.63
2023-02-19T07:23:04.852Z,77.63
2023-02-19T07:25:31.999Z,77.69
2023-02-19T07:27:58.830Z,77.86
2023-02-19T07:30:25.870Z,77.76
2023-02-19T07:32:52.959Z,77.53
2023-02-19T07:35:21.403Z,77.56
2023-02-19T07:37:48.245Z,77.94
2023-02-19T07:40:15.489Z,77.70
2023-02-19T07:42:42.333Z,77.77
2023-02-19T07:45:09.456Z,77.79
2023-02-19T07:47:36.631Z,77.85
2023-02-19T07:50:04.217Z,77.79
2023-02-19T07:52:31.133Z,77.67
2023-02-19T07:54:58.090Z,77.68
2023-02-19T07:57:25.028Z,77.77
2023-02-19T07:59:52.033Z,77.81
2023-02-19T08:02:38.993Z,77.87
2023-02-19T08:05:07.133Z,77.78
2023-02-19T08:07:35.335Z,77.84
2023-02-19T08:10:26.439Z,77.73
2023-02-19T08:13:19.342Z,77.72
2023-02-19T08:15:47.422Z,77.71
2023-02-19T08:18:15.345Z,77.75
2023-02-19T08:20:43.138Z,77.86
2023-02-19T08:23:11.243Z,78.01
2023-02-19T08:25:39.685Z,78.00
2023-02-19T08:28:10.603Z,77.98
2023-02-19T08:30:39.075Z,77.98
2023-02-19T08:33:07.489Z,78.14
2023-02-19T08:35:36.902Z,78.04
2023-02-19T08:38:06.059Z,77.92
2023-02-19T08:40:34.021Z,77.98
2023-02-19T08:43:13.259Z,78.08
2023-02-19T08:45:42.437Z,78.01
2023-02-19T08:48:10.266Z,77.90
2023-02-19T08:50:37.804Z,78.06
2023-02-19T08:53:06.214Z,77.85
2023-02-19T08:55:33.901Z,77.94
2023-02-19T08:58:01.115Z,78.11
2023-02-19T09:00:28.016Z,78.03
2023-02-19T09:02:54.841Z,78.03
2023-02-19T09:05:21.831Z,78.06
2023-02-19T09:07:48.682Z,78.22
2023-02-19T09:10:15.680Z,78.06
2023-02-19T09:12:42.535Z,78.10
2023-02-19T09:15:09.803Z,77.98
2023-02-19T09:17:36.844Z,78.05
2023-02-19T09:20:06.736Z,78.16
2023-02-19T09:22:33.779Z,78.28
2023-02-19T09:25:00.849Z,78.11
2023-02-19T09:27:28.104Z,78.29
2023-02-19T09:29:55.195Z,78.39
2023-02-19T09:32:22.195Z,78.23
2023-02-19T09:34:50.155Z,78.29
2023-02-19T09:37:16.990Z,78.18
2023-02-19T09:39:43.960Z,78.36
2023-02-19T09:42:24.598Z,78.53
2023-02-19T09:44:55.491Z,78.38
2023-02-19T09:47:25.473Z,78.47
2023-02-19T09:49:56.082Z,78.64
2023-02-19T09:52:44.986Z,78.48
2023-02-19T09:55:26.116Z,78.75
2023-02-19T09:57:53.642Z,78.69
2023-02-19T10:00:32.149Z,78.70
2023-02-19T10:03:13.380Z,78.95
2023-02-19T10:05:41.750Z,78.88
2023-02-19T10:08:15.501Z,78.93
2023-02-19T10:10:44.152Z,78.91
2023-02-19T10:13:30.945Z,79.03
2023-02-19T10:16:01.577Z,79.02
2023-02-19T10:18:37.944Z,78.95
2023-02-19T10:21:05.806Z,78.90
2023-02-19T10:23:33.066Z,79.01
2023-02-19T10:26:00.702Z,78.95
2023-02-19T10:28:30.458Z,79.13
2023-02-19T10:30:59.801Z,79.03
2023-02-19T10:33:26.784Z,79.21
2023-02-19T10:36:04.198Z,79.25
2023-02-19T10:38:38.742Z,79.21
2023-02-19T10:41:26.035Z,79.21
2023-02-19T10:43:53.136Z,79.34
2023-02-19T10:46:24.500Z,79.40
2023-02-19T10:49:23.035Z,79.51
2023-02-19T10:51:52.194Z,79.50
2023-02-19T10:54:31.428Z,79.53
2023-02-19T10:57:29.937Z,79.66
2023-02-19T11:00:17.254Z,79.67
2023-02-19T11:02:45.613Z,79.73
2023-02-19T11:05:14.570Z,79.75
2023-02-19T11:07:54.540Z,79.81
2023-02-19T11:10:32.659Z,79.75
2023-02-19T11:13:03.606Z,79.95
2023-02-19T11:15:32.267Z,79.78
2023-02-19T11:18:21.663Z,80.01
2023-02-19T11:21:02.834Z,79.91
2023-02-19T11:23:36.070Z,80.04
2023-02-19T11:26:19.809Z,80.14
2023-02-19T11:28:57.257Z,80.15
2023-02-19T11:31:35.500Z,80.30
2023-02-19T11:34:15.827Z,80.30
2023-02-19T11:36:42.894Z,80.80
2023-02-19T11:39:15.907Z,81.20
2023-02-19T11:42:01.209Z,81.05
2023-02-19T11:44:49.913Z,80.86
2023-02-19T11:47:48.735Z,81.09
2023-02-19T11:50:15.889Z,80.98
2023-02-19T11:53:13.668Z,81.36
2023-02-19T11:55:52.626Z,81.36
2023-02-19T11:58:28.528Z,81.40
2023-02-19T12:01:06.795Z,81.48
2023-02-19T12:03:52.341Z,81.42
2023-02-19T12:06:54.106Z,81.81
2023-02-19T12:09:33.536Z,81.41
2023-02-19T12:12:03.537Z,81.68
2023-02-19T12:15:02.402Z,81.88
2023-02-19T12:17:53.837Z,81.97
2023-02-19T12:20:32.829Z,82.07
2023-02-19T12:23:05.733Z,81.84
2023-02-19T12:26:04.805Z,82.33
2023-02-19T12:28:46.808Z,82.39
2023-02-19T12:31:35.032Z,82.12
2023-02-19T12:34:25.544Z,82.10
2023-02-19T12:37:04.366Z,82.23
2023-02-19T12:39:47.829Z,82.47
2023-02-19T12:42:26.548Z,82.39
2023-02-19T12:44:59.841Z,82.20
2023-02-19T12:47:38.339Z,82.16
2023-02-19T12:50:17.061Z,82.13
2023-02-19T12:52:48.602Z,81.94
2023-02-19T12:55:18.564Z,81.97
2023-02-19T12:57:46.898Z,82.46
2023-02-19T13:00:54.024Z,82.01
2023-02-19T13:03:32.260Z,82.29
2023-02-19T13:06:29.475Z,82.30
2023-02-19T13:09:18.031Z,82.49
2023-02-19T13:11:53.244Z,82.54
2023-02-19T13:14:32.334Z,82.48
2023-02-19T13:17:40.959Z,82.61
2023-02-19T13:20:32.652Z,82.57
2023-02-19T13:23:40.729Z,82.72
2023-02-19T13:26:32.765Z,82.41
2023-02-19T13:29:37.388Z,82.47
2023-02-19T13:32:25.666Z,82.96
2023-02-19T13:35:01.690Z,82.74
2023-02-19T13:37:34.284Z,83.10
2023-02-19T13:40:06.994Z,83.08
2023-02-19T13:42:36.278Z,83.04
2023-02-19T13:45:06.400Z,83.27
2023-02-19T13:48:23.969Z,82.99
2023-02-19T13:51:21.684Z,83.32
2023-02-19T13:53:55.488Z,83.46
2023-02-19T13:56:37.065Z,83.55
2023-02-19T13:59:35.357Z,83.23
2023-02-19T14:02:02.486Z,83.22
2023-02-19T14:04:32.345Z,83.07
2023-02-19T14:07:05.206Z,83.06
2023-02-19T14:09:37.827Z,83.64
2023-02-19T14:12:07.643Z,83.78
2023-02-19T14:14:41.371Z,84.00
2023-02-19T14:17:33.419Z,84.03
2023-02-19T14:20:00.421Z,84.22
2023-02-19T14:22:57.093Z,84.06
2023-02-19T14:25:38.518Z,83.94
2023-02-19T14:28:43.624Z,83.91
2023-02-19T14:31:37.734Z,83.77
2023-02-19T14:34:07.080Z,83.92
2023-02-19T14:36:47.886Z,84.11
2023-02-19T14:39:19.879Z,83.98
2023-02-19T14:42:16.893Z,84.03
2023-02-19T14:44:51.670Z,84.39
2023-02-19T14:47:21.971Z,84.60
2023-02-19T14:49:52.424Z,84.74
2023-02-19T14:52:28.567Z,84.91
2023-02-19T14:55:08.689Z,85.13
2023-02-19T14:57:42.015Z,85.09
2023-02-19T15:00:39.598Z,84.74
2023-02-19T15:03:24.083Z,84.86
2023-02-19T15:05:58.304Z,84.87
2023-02-19T15:08:34.523Z,84.76
2023-02-19T15:11:04.280Z,85.07
2023-02-19T15:13:31.866Z,85.24
2023-02-19T15:15:59.416Z,85.59
2023-02-19T15:18:27.735Z,85.71
2023-02-19T15:21:03.383Z,85.41
2023-02-19T15:23:32.521Z,84.97
2023-02-19T15:26:00.418Z,85.03
2023-02-19T15:28:27.654Z,84.90
2023-02-19T15:30:57.316Z,85.36
2023-02-19T15:33:27.333Z,85.22
2023-02-19T15:35:58.005Z,85.52
2023-02-19T15:38:25.768Z,85.16
2023-02-19T15:40:53.657Z,85.66
2023-02-19T15:43:29.389Z,85.59
2023-02-19T15:46:04.723Z,85.44
2023-02-19T15:48:45.032Z,85.28
2023-02-19T15:51:22.392Z,84.90
2023-02-19T15:53:55.739Z,85.14
2023-02-19T15:56:28.311Z,85.20
2023-02-19T15:59:05.733Z,85.53
2023-02-19T16:01:38.712Z,85.90
2023-02-19T16:04:14.190Z,85.35
2023-02-19T16:06:54.999Z,85.51
2023-02-19T16:09:31.329Z,85.65
2023-02-19T16:12:03.157Z,85.61
2023-02-19T16:14:33.925Z,84.85
2023-02-19T16:17:09.757Z,85.29
2023-02-19T16:19:42.971Z,85.49
2023-02-19T16:22:12.146Z,85.35
2023-02-19T16:24:45.439Z,85.46
2023-02-19T16:27:14.637Z,85.11
2023-02-19T16:29:41.700Z,85.43
2023-02-19T16:32:16.987Z,85.65
2023-02-19T16:34:47.083Z,85.71
2023-02-19T16:37:35.818Z,85.09
2023-02-19T16:40:08.591Z,85.35
2023-02-19T16:42:57.101Z,85.71
2023-02-19T16:45:27.104Z,85.36
2023-02-19T16:47:54.576Z,85.51
2023-02-19T16:50:24.660Z,85.51
2023-02-19T16:52:58.934Z,85.44
2023-02-19T16:55:27.625Z,85.50
2023-02-19T16:57:56.249Z,85.58
2023-02-19T17:00:25.958Z,85.40
2023-02-19T17:02:58.936Z,85.29
2023-02-19T17:05:28.879Z,85.55
2023-02-19T17:07:55.801Z,85.34
2023-02-19T17:10:26.457Z,85.58
2023-02-19T17:12:55.069Z,85.73
2023-02-19T17:15:23.043Z,85.61
2023-02-19T17:17:50.007Z,85.74
2023-02-19T17:20:27.676Z,85.64
2023-02-19T17:22:56.026Z,85.74
2023-02-19T17:25:23.692Z,85.84
2023-02-19T17:27:50.733Z,85.69
2023-02-19T17:30:30.346Z,85.81
2023-02-19T17:32:57.423Z,85.73
2023-02-19T17:35:24.507Z,85.63
2023-02-19T17:37:53.395Z,85.61
2023-02-19T17:40:33.142Z,85.71
2023-02-19T17:43:01.130Z,85.45
2023-02-19T17:45:28.345Z,85.54
2023-02-19T17:47:55.378Z,85.62
2023-02-19T17:50:25.134Z,85.48
2023-02-19T17:52:52.414Z,85.45
2023-02-19T17:55:19.870Z,85.41
2023-02-19T17:57:49.025Z,85.24
2023-02-19T18:00:17.970Z,85.09
2023-02-19T18:02:45.190Z,84.84
2023-02-19T18:05:12.370Z,84.78
2023-02-19T18:07:39.468Z,84.56
2023-02-19T18:10:07.544Z,84.68
2023-02-19T18:12:34.591Z,84.56
2023-02-19T18:15:01.644Z,84.50
2023-02-19T18:17:28.650Z,84.32
2023-02-19T18:19:55.654Z,84.13
2023-02-19T18:22:22.739Z,84.16
2023-02-19T18:24:52.180Z,84.17
2023-02-19T18:27:20.479Z,84.13
2023-02-19T18:29:55.022Z,84.00
2023-02-19T18:32:23.892Z,83.87
2023-02-19T18:34:56.509Z,83.90
2023-02-19T18:37:25.183Z,83.89
2023-02-19T18:39:52.513Z,83.69
2023-02-19T18:42:21.600Z,83.95
2023-02-19T18:44:49.903Z,83.87
2023-02-19T18:47:17.574Z,84.13
2023-02-19T18:49:49.588Z,84.11
2023-02-19T18:52:21.740Z,84.18
2023-02-19T18:54:51.689Z,84.27
2023-02-19T18:57:19.991Z,84.22
2023-02-19T18:59:47.025Z,84.33
2023-02-19T19:02:14.970Z,84.36
2023-02-19T19:04:43.243Z,84.26
2023-02-19T19:07:10.940Z,84.36
2023-02-19T19:09:38.042Z,84.49
2023-02-19T19:12:05.371Z,84.44
2023-02-19T19:14:32.359Z,84.60
2023-02-19T19:17:00.998Z,84.48
2023-02-19T19:19:27.922Z,84.44
2023-02-19T19:21:55.538Z,84.48
2023-02-19T19:24:24.485Z,84.40
2023-02-19T19:26:52.227Z,84.35
2023-02-19T19:29:22.170Z,84.32
2023-02-19T19:31:49.919Z,84.46
2023-02-19T19:34:18.009Z,84.13
2023-02-19T19:36:45.854Z,84.07
2023-02-19T19:39:13.224Z,84.15
2023-02-19T19:41:40.273Z,84.07
2023-02-19T19:44:09.145Z,84.00
2023-02-19T19:46:42.286Z,84.22
2023-02-19T19:49:09.347Z,84.20
2023-02-19T19:51:36.325Z,84.22
2023-02-19T19:54:04.331Z,84.27
2023-02-19T19:56:31.797Z,84.24
2023-02-19T19:58:58.792Z,84.36
2023-02-19T20:01:25.693Z,84.49
2023-02-19T20:03:52.759Z,84.42
2023-02-19T20:06:28.819Z,84.28
2023-02-19T20:08:56.302Z,84.23
2023-02-19T20:11:23.563Z,84.19
2023-02-19T20:13:50.619Z,84.17
2023-02-19T20:16:23.053Z,84.29
2023-02-19T20:18:49.974Z,84.20
2023-02-19T20:21:16.880Z,84.26
2023-02-19T20:23:43.981Z,84.22
2023-02-19T20:26:10.854Z,84.34
2023-02-19T20:28:37.820Z,84.46
2023-02-19T20:31:05.048Z,84.36
2023-02-19T20:33:32.033Z,84.39
2023-02-19T20:35:58.838Z,84.40
2023-02-19T20:38:25.951Z,84.48
2023-02-19T20:40:52.801Z,84.70
2023-02-19T20:43:19.887Z,84.90
2023-02-19T20:45:47.870Z,85.14
2023-02-19T20:48:16.846Z,84.69
2023-02-19T20:50:44.367Z,85.03
2023-02-19T20:53:11.776Z,85.05
2023-02-19T20:55:38.917Z,85.03
2023-02-19T20:58:06.129Z,84.96
2023-02-19T21:00:33.048Z,84.70
2023-02-19T21:03:00.207Z,84.76
2023-02-19T21:05:27.064Z,84.81
2023-02-19T21:07:53.948Z,84.89
2023-02-19T21:10:20.976Z,85.42
2023-02-19T21:12:48.204Z,85.51
2023-02-19T21:15:15.177Z,85.61
2023-02-19T21:17:45.302Z,85.66
2023-02-19T21:20:12.430Z,85.62
2023-02-19T21:22:39.390Z,85.40
2023-02-19T21:25:06.599Z,85.44
2023-02-19T21:27:33.500Z,85.58
2023-02-19T21:30:00.590Z,85.35
2023-02-19T21:32:27.857Z,85.61
2023-02-19T21:34:55.000Z,85.73
2023-02-19T21:37:22.070Z,86.06
2023-02-19T21:39:49.188Z,85.83
2023-02-19T21:42:16.133Z,86.00
2023-02-19T21:44:43.277Z,85.73
2023-02-19T21:47:12.335Z,86.00
2023-02-19T21:49:41.799Z,86.23
2023-02-19T21:52:08.952Z,86.32
2023-02-19T21:54:35.878Z,86.06
2023-02-19T21:57:03.989Z,86.08
2023-02-19T21:59:30.861Z,86.19
2023-02-19T22:01:57.877Z,86.21
2023-02-19T22:04:24.828Z,86.35
2023-02-19T22:06:55.999Z,86.45
2023-02-19T22:09:23.212Z,86.10
2023-02-19T22:11:50.022Z,85.86
2023-02-19T22:14:17.275Z,86.09
2023-02-19T22:16:44.065Z,85.74
2023-02-19T22:19:12.365Z,85.64
2023-02-19T22:21:43.275Z,85.91
2023-02-19T22:24:16.825Z,85.93
2023-02-19T22:26:44.938Z,85.70
2023-02-19T22:29:13.904Z,85.64
2023-02-19T22:31:41.322Z,85.53
2023-02-19T22:34:09.102Z,85.74
2023-02-19T22:36:37.463Z,85.58
2023-02-19T22:39:06.296Z,85.57
2023-02-19T22:41:33.994Z,85.55
2023-02-19T22:44:01.131Z,85.29
2023-02-19T22:46:30.611Z,85.06
2023-02-19T22:48:58.648Z,85.19
2023-02-19T22:51:26.309Z,84.85
2023-02-19T22:53:55.147Z,85.32
2023-02-19T22:56:24.688Z,85.17
2023-02-19T22:58:52.087Z,85.22
2023-02-19T23:01:20.211Z,85.24
2023-02-19T23:03:47.917Z,85.25
2023-02-19T23:06:16.395Z,85.42
2023-02-19T23:08:44.101Z,85.22
2023-02-19T23:11:12.748Z,85.16
2023-02-19T23:13:42.765Z,85.24
2023-02-19T23:16:09.952Z,85.13
2023-02-19T23:18:36.978Z,85.35
2023-02-19T23:21:04.129Z,85.19
2023-02-19T23:23:30.972Z,85.32
2023-02-19T23:25:57.930Z,85.21
2023-02-19T23:28:24.911Z,85.20
2023-02-19T23:30:52.069Z,85.32
2023-02-19T23:33:19.473Z,85.26
2023-02-19T23:35:46.465Z,85.35
2023-02-19T23:38:13.362Z,85.40
2023-02-19T23:40:40.523Z,85.27
2023-02-19T23:43:07.368Z,85.33
2023-02-19T23:45:34.591Z,85.42
2023-02-19T23:48:01.432Z,85.38
2023-02-19T23:50:28.478Z,85.30
2023-02-19T23:52:56.980Z,85.22
2023-02-19T23:55:24.139Z,85.24
2023-02-19T23:57:52.667Z,85.25
